Time;durP1;ratioP1;P1;durP2;ratioP2;P2;SDS_P1;SDS_P2;PMS_P1;PMS_P2;Temp;Humidity;BMP_temperature;BMP_pressure;BME280_temperature;BME280_humidity;BME280_pressure;Samples;Min_cycle;Max_cycle;Signal;HPM_P1;HPM_P2
2023/10/20 00:01:31;;;;;;;13.20;10.27;;;9.70;99.90;;;;;;4987072;28;20631;-70
2023/10/20 00:03:56;;;;;;;14.52;10.15;;;9.80;99.90;;;;;;4996227;28;20046;-70
2023/10/20 00:06:22;;;;;;;13.38;10.10;;;9.70;99.90;;;;;;4997341;28;20037;-70
2023/10/20 00:08:47;;;;;;;11.98;9.95;;;9.80;99.90;;;;;;4995342;28;20608;-70
2023/10/20 00:11:13;;;;;;;14.30;10.38;;;9.70;99.90;;;;;;4994851;28;20022;-70
2023/10/20 00:13:40;;;;;;;12.80;9.70;;;9.80;99.90;;;;;;4993287;28;21970;-70
2023/10/20 00:16:06;;;;;;;13.50;11.25;;;9.70;99.90;;;;;;4996572;28;20018;-70
2023/10/20 00:18:31;;;;;;;12.90;10.02;;;9.70;99.90;;;;;;4986491;28;20104;-70
2023/10/20 00:20:57;;;;;;;18.38;10.95;;;9.70;99.90;;;;;;4993129;28;20379;-70
2023/10/20 00:23:23;;;;;;;13.95;9.88;;;9.80;99.90;;;;;;4987404;28;20042;-69
2023/10/20 00:25:49;;;;;;;13.75;10.82;;;9.80;99.90;;;;;;4990436;28;20037;-69
2023/10/20 00:28:15;;;;;;;13.73;10.05;;;9.80;99.90;;;;;;4994101;28;20038;-68
2023/10/20 00:30:41;;;;;;;14.02;9.85;;;9.80;99.90;;;;;;4994526;28;20096;-68
2023/10/20 00:33:07;;;;;;;13.38;9.32;;;9.80;99.90;;;;;;4993532;28;20141;-68
2023/10/20 00:35:33;;;;;;;14.38;10.88;;;9.80;99.90;;;;;;4994707;28;20042;-67
2023/10/20 00:37:59;;;;;;;11.93;9.77;;;9.80;99.90;;;;;;4997833;28;20042;-68
2023/10/20 00:40:25;;;;;;;13.18;9.50;;;9.70;99.90;;;;;;4997582;28;20117;-69
2023/10/20 00:42:51;;;;;;;11.63;9.60;;;9.70;99.90;;;;;;4992091;28;20045;-68
2023/10/20 00:45:17;;;;;;;12.13;9.60;;;9.70;99.90;;;;;;4998656;28;20030;-68
2023/10/20 00:47:46;;;;;;;14.63;9.93;;;9.70;99.90;;;;;;4991484;28;20030;-70
2023/10/20 00:50:13;;;;;;;14.77;10.32;;;9.70;99.90;;;;;;4996248;28;20491;-69
2023/10/20 00:52:46;;;;;;;10.52;8.98;;;9.60;99.90;;;;;;5000317;28;20049;-69
2023/10/20 00:55:13;;;;;;;13.20;9.63;;;9.70;99.90;;;;;;4999058;28;20728;-69
2023/10/20 00:57:40;;;;;;;12.30;9.73;;;9.70;99.90;;;;;;4995127;28;20355;-69
2023/10/20 01:00:09;;;;;;;13.48;10.50;;;9.70;99.90;;;;;;4999626;28;20598;-69
2023/10/20 01:02:36;;;;;;;14.45;9.50;;;9.80;99.90;;;;;;4996547;28;20046;-69
2023/10/20 01:05:05;;;;;;;13.30;9.00;;;9.80;99.90;;;;;;5001378;28;20771;-68
2023/10/20 01:07:32;;;;;;;12.02;9.40;;;9.80;99.90;;;;;;4999908;28;20034;-70
2023/10/20 01:10:05;;;;;;;13.27;9.23;;;9.80;99.90;;;;;;4995800;28;20029;-71
2023/10/20 01:12:33;;;;;;;12.18;8.95;;;9.70;99.90;;;;;;4996857;28;20618;-70
2023/10/20 01:14:59;;;;;;;14.18;9.82;;;9.70;99.90;;;;;;4995026;28;20487;-70
2023/10/20 01:17:29;;;;;;;14.43;9.65;;;9.70;99.90;;;;;;4999679;28;20044;-70
2023/10/20 01:19:55;;;;;;;11.52;8.93;;;9.70;99.90;;;;;;4990155;28;20133;-70
2023/10/20 01:22:21;;;;;;;12.75;9.88;;;9.70;99.90;;;;;;4996913;28;20053;-66
2023/10/20 01:24:47;;;;;;;12.15;10.02;;;9.70;99.90;;;;;;4990368;28;20492;-65
2023/10/20 01:27:13;;;;;;;12.65;9.30;;;9.70;99.90;;;;;;4994088;28;20133;-66
2023/10/20 01:29:39;;;;;;;13.85;9.93;;;9.70;99.90;;;;;;4995913;28;20041;-66
2023/10/20 01:32:05;;;;;;;11.27;9.05;;;9.70;99.90;;;;;;4992653;28;20065;-66
2023/10/20 01:34:31;;;;;;;14.25;10.20;;;9.60;99.90;;;;;;4993276;28;20074;-66
2023/10/20 01:36:57;;;;;;;13.00;10.23;;;9.60;99.90;;;;;;4990667;28;20034;-66
2023/10/20 01:39:22;;;;;;;15.10;9.57;;;9.60;99.90;;;;;;4989595;28;20060;-71
2023/10/20 01:41:48;;;;;;;13.50;9.23;;;9.60;99.90;;;;;;4982465;28;20032;-69
2023/10/20 01:44:13;;;;;;;13.40;10.48;;;9.60;99.90;;;;;;4989221;28;20034;-70
2023/10/20 01:46:42;;;;;;;12.07;8.77;;;9.60;99.90;;;;;;4972616;28;20046;-70
2023/10/20 01:49:07;;;;;;;11.05;8.63;;;9.60;99.90;;;;;;4977512;28;20173;-70
2023/10/20 01:51:34;;;;;;;12.75;9.05;;;9.50;99.90;;;;;;4989402;28;20429;-70
2023/10/20 01:54:00;;;;;;;12.40;10.00;;;9.50;99.90;;;;;;4987783;28;20054;-69
2023/10/20 01:56:26;;;;;;;14.73;8.93;;;9.40;99.90;;;;;;4977608;28;20033;-68
2023/10/20 01:58:51;;;;;;;12.75;9.75;;;9.40;99.90;;;;;;4998919;28;20144;-70
2023/10/20 02:01:18;;;;;;;13.13;9.95;;;9.40;99.90;;;;;;5010075;28;20041;-69
2023/10/20 02:03:47;;;;;;;10.35;8.60;;;9.40;99.90;;;;;;5016464;28;20053;-71
2023/10/20 02:06:12;;;;;;;13.15;10.13;;;9.40;99.90;;;;;;5009409;28;20037;-70
2023/10/20 02:08:39;;;;;;;8.82;7.38;;;9.30;99.90;;;;;;5014255;28;20414;-69
2023/10/20 02:11:04;;;;;;;10.55;7.90;;;9.30;99.90;;;;;;5011765;28;20474;-69
2023/10/20 02:13:30;;;;;;;10.25;8.05;;;9.30;99.90;;;;;;5013273;28;20555;-69
2023/10/20 02:15:56;;;;;;;9.88;7.38;;;9.30;99.90;;;;;;5016527;28;20036;-68
2023/10/20 02:18:21;;;;;;;8.93;8.02;;;9.20;99.90;;;;;;5009096;28;20100;-69
2023/10/20 02:21:03;;;;;;;9.23;7.75;;;9.20;99.90;;;;;;5008312;28;20052;-69
2023/10/20 02:23:34;;;;;;;9.60;7.57;;;9.20;99.90;;;;;;5010246;28;20675;-69
2023/10/20 02:26:01;;;;;;;10.20;8.35;;;9.20;99.90;;;;;;5008974;28;20041;-70
2023/10/20 02:28:27;;;;;;;12.40;9.32;;;9.30;99.90;;;;;;5006500;28;20453;-70
2023/10/20 02:30:56;;;;;;;13.23;9.73;;;9.30;99.90;;;;;;5010998;28;20033;-69
2023/10/20 02:33:22;;;;;;;12.52;10.35;;;9.20;99.90;;;;;;5011518;28;20514;-69
2023/10/20 02:35:48;;;;;;;9.15;7.72;;;9.20;99.90;;;;;;5008325;28;20423;-70
2023/10/20 02:38:14;;;;;;;10.55;8.30;;;9.30;99.90;;;;;;5001444;28;20038;-70
2023/10/20 02:40:47;;;;;;;11.00;8.85;;;9.30;99.90;;;;;;5006365;28;20030;-69
2023/10/20 02:43:13;;;;;;;10.40;8.18;;;9.30;99.90;;;;;;5007316;28;20046;-70
2023/10/20 02:45:55;;;;;;;10.00;8.88;;;9.30;99.90;;;;;;5008646;28;20037;-70
2023/10/20 02:48:21;;;;;;;;;;;9.30;99.90;;;;;;5010360;28;20042;-70
2023/10/20 02:50:47;;;;;;;11.10;8.10;;;9.20;99.90;;;;;;5009495;28;19916;-70
2023/10/20 02:53:16;;;;;;;9.32;8.32;;;9.20;99.90;;;;;;5009681;28;20056;-69
2023/10/20 02:55:42;;;;;;;13.20;10.13;;;9.20;99.90;;;;;;5009348;28;20037;-69
2023/10/20 02:58:10;;;;;;;13.52;9.35;;;9.30;99.90;;;;;;5007777;28;20120;-70
2023/10/20 03:00:43;;;;;;;13.35;9.57;;;9.30;99.90;;;;;;5009160;28;20076;-69
2023/10/20 03:03:11;;;;;;;12.48;9.20;;;9.30;99.90;;;;;;5007399;28;20038;-69
2023/10/20 03:05:37;;;;;;;10.57;9.38;;;9.30;99.90;;;;;;5007364;28;20116;-70
2023/10/20 03:08:03;;;;;;;11.95;9.65;;;9.40;99.90;;;;;;5011181;28;20476;-70
2023/10/20 03:10:29;;;;;;;12.20;9.48;;;9.40;99.90;;;;;;5010988;28;20041;-68
2023/10/20 03:12:54;;;;;;;12.25;9.85;;;9.30;99.90;;;;;;5016058;28;20092;-67
2023/10/20 03:15:20;;;;;;;12.30;9.88;;;9.40;99.90;;;;;;5017752;28;20099;-67
2023/10/20 03:17:46;;;;;;;12.73;9.70;;;9.40;99.90;;;;;;5011611;28;20037;-67
2023/10/20 03:20:17;;;;;;;11.20;9.00;;;9.50;99.90;;;;;;5007675;28;20112;-68
2023/10/20 03:22:44;;;;;;;13.55;9.38;;;9.50;99.90;;;;;;5012695;28;20043;-68
2023/10/20 03:25:10;;;;;;;10.43;8.63;;;9.40;99.90;;;;;;5014948;28;20458;-68
2023/10/20 03:27:37;;;;;;;11.38;9.50;;;9.50;99.90;;;;;;5013798;28;20030;-68
2023/10/20 03:30:05;;;;;;;11.25;9.80;;;9.50;99.90;;;;;;5017178;28;20044;-69
2023/10/20 03:32:31;;;;;;;16.45;10.52;;;9.50;99.90;;;;;;5011323;28;20049;-69
2023/10/20 03:34:57;;;;;;;14.45;11.75;;;9.40;99.90;;;;;;5012132;28;20064;-70
2023/10/20 03:37:22;;;;;;;13.48;10.55;;;9.40;99.90;;;;;;5014549;28;20092;-69
2023/10/20 03:39:50;;;;;;;14.82;12.00;;;9.40;99.90;;;;;;5011950;28;20037;-70
2023/10/20 03:42:16;;;;;;;18.92;13.65;;;9.30;99.90;;;;;;5013929;28;20087;-69
2023/10/20 03:44:43;;;;;;;15.77;13.38;;;9.30;99.90;;;;;;5015110;28;20041;-70
2023/10/20 03:47:09;;;;;;;16.58;12.63;;;9.30;99.90;;;;;;5014885;28;20111;-67
2023/10/20 03:49:35;;;;;;;18.75;11.98;;;9.20;99.90;;;;;;5012115;28;20099;-68
2023/10/20 03:52:02;;;;;;;17.38;14.15;;;9.30;99.90;;;;;;5011111;28;20091;-68
2023/10/20 03:54:30;;;;;;;19.27;15.15;;;9.30;99.90;;;;;;5019345;28;20042;-67
2023/10/20 03:56:58;;;;;;;15.10;13.50;;;9.30;99.90;;;;;;5014250;28;20152;-68
2023/10/20 03:59:24;;;;;;;13.43;10.35;;;9.30;99.90;;;;;;5012552;28;20069;-68
2023/10/20 04:01:51;;;;;;;16.75;11.90;;;9.20;99.90;;;;;;5014551;28;20037;-68
2023/10/20 04:04:17;;;;;;;15.18;11.55;;;9.20;99.90;;;;;;5016297;28;20095;-68
2023/10/20 04:06:44;;;;;;;14.05;11.88;;;9.20;99.90;;;;;;5016504;28;20094;-70
2023/10/20 04:09:10;;;;;;;13.63;11.02;;;9.20;99.90;;;;;;5018758;28;20045;-69
2023/10/20 04:11:37;;;;;;;13.70;12.10;;;9.30;99.90;;;;;;5015802;28;20117;-69
2023/10/20 04:14:05;;;;;;;16.65;11.93;;;9.20;99.90;;;;;;5002496;28;20176;-69
2023/10/20 04:16:37;;;;;;;16.05;12.40;;;9.20;99.90;;;;;;5016156;28;20144;-69
2023/10/20 04:19:04;;;;;;;15.25;11.77;;;9.20;99.90;;;;;;5016788;28;20135;-68
2023/10/20 04:21:30;;;;;;;16.42;12.10;;;9.20;99.90;;;;;;5020408;28;20034;-69
2023/10/20 04:23:56;;;;;;;17.35;12.52;;;9.20;99.90;;;;;;5014027;28;20096;-68
2023/10/20 04:26:22;;;;;;;14.60;12.20;;;9.20;99.90;;;;;;5016707;28;20033;-67
2023/10/20 04:29:02;;;;;;;15.77;12.15;;;9.30;99.90;;;;;;5018434;28;20029;-68
2023/10/20 04:54:19;;;;;;;56.15;25.70;;;9.20;99.90;;;;;;5012680;28;20130;-70
2023/10/20 04:58:59;;;;;;;45.88;22.60;;;9.30;99.90;;;;;;5019858;28;20077;-70
2023/10/20 05:01:41;;;;;;;45.63;20.77;;;9.30;99.90;;;;;;5013205;28;20098;-71
2023/10/20 05:04:16;;;;;;;30.00;16.65;;;9.30;99.90;;;;;;5010690;28;20041;-67
2023/10/20 05:06:53;;;;;;;61.83;31.80;;;9.30;99.90;;;;;;5012186;28;20032;-69
2023/10/20 05:09:19;;;;;;;42.15;21.73;;;9.30;99.90;;;;;;5030209;28;20058;-68
2023/10/20 05:11:46;;;;;;;112.88;56.00;;;9.40;99.90;;;;;;5008327;28;20042;-68
2023/10/20 05:14:12;;;;;;;124.50;59.95;;;9.40;99.90;;;;;;5015043;28;20399;-68
2023/10/20 05:16:39;;;;;;;104.32;45.92;;;9.40;99.90;;;;;;5008873;28;20032;-69
2023/10/20 05:19:05;;;;;;;73.97;36.35;;;9.30;99.90;;;;;;5010065;28;20405;-68
2023/10/20 05:21:38;;;;;;;57.70;32.60;;;9.40;99.90;;;;;;5007028;28;20045;-69
2023/10/20 05:24:04;;;;;;;64.38;31.00;;;9.40;99.90;;;;;;5012702;28;20037;-70
2023/10/20 05:26:31;;;;;;;65.47;32.10;;;9.40;99.90;;;;;;5005544;28;20042;-70
2023/10/20 05:28:58;;;;;;;46.58;26.17;;;9.40;99.90;;;;;;5008714;28;20375;-70
2023/10/20 05:31:27;;;;;;;65.43;32.85;;;9.50;99.90;;;;;;5017449;28;20162;-68
2023/10/20 05:33:53;;;;;;;55.42;31.73;;;9.50;99.90;;;;;;5008422;28;20049;-68
2023/10/20 05:36:19;;;;;;;55.97;31.58;;;9.50;99.90;;;;;;5011626;28;20048;-68
2023/10/20 05:38:45;;;;;;;56.40;31.08;;;9.50;99.90;;;;;;5033459;28;22036;-68
2023/10/20 05:41:14;;;;;;;46.17;26.80;;;9.50;99.90;;;;;;5015007;28;20029;-68
2023/10/20 05:43:41;;;;;;;68.25;36.53;;;9.50;99.90;;;;;;5018317;28;20056;-68
2023/10/20 05:46:14;;;;;;;67.80;35.13;;;9.50;99.90;;;;;;5017137;28;20433;-68
2023/10/20 05:48:40;;;;;;;57.15;32.33;;;9.60;99.90;;;;;;5016182;28;20045;-68
2023/10/20 05:51:05;;;;;;;47.90;27.65;;;9.60;99.90;;;;;;5009072;28;20037;-68
2023/10/20 05:53:31;;;;;;;39.75;23.92;;;9.60;99.90;;;;;;5013799;28;20053;-68
2023/10/20 05:55:57;;;;;;;33.60;20.77;;;9.50;99.90;;;;;;5012893;28;20041;-68
2023/10/20 05:58:23;;;;;;;32.80;19.38;;;9.60;99.90;;;;;;5015697;28;20144;-68
2023/10/20 06:00:49;;;;;;;31.40;19.92;;;9.60;99.90;;;;;;5014455;28;20057;-69
2023/10/20 06:03:14;;;;;;;33.95;21.23;;;9.60;99.90;;;;;;5012880;28;20120;-68
2023/10/20 06:05:40;;;;;;;36.72;21.13;;;9.60;99.90;;;;;;5016655;28;20037;-68
2023/10/20 06:08:06;;;;;;;47.78;27.20;;;9.70;99.90;;;;;;5011889;28;20049;-68
2023/10/20 06:10:32;;;;;;;33.28;19.63;;;9.70;99.90;;;;;;5009330;28;20040;-69
2023/10/20 06:12:57;;;;;;;25.02;16.80;;;9.80;99.90;;;;;;5003710;28;20120;-67
2023/10/20 06:15:23;;;;;;;23.42;14.55;;;9.80;99.90;;;;;;5016656;28;20044;-68
2023/10/20 06:17:50;;;;;;;23.65;17.42;;;9.80;99.90;;;;;;5013012;28;20407;-67
2023/10/20 06:20:16;;;;;;;109.43;48.70;;;9.80;99.90;;;;;;5019960;28;20021;-68
2023/10/20 06:22:42;;;;;;;189.43;87.55;;;9.80;99.90;;;;;;5018599;28;20103;-68
2023/10/20 06:25:14;;;;;;;127.18;58.97;;;9.80;99.90;;;;;;5023594;28;20103;-69
2023/10/20 06:27:45;;;;;;;106.68;53.38;;;9.90;99.90;;;;;;5017343;28;20665;-69
2023/10/20 06:30:22;;;;;;;63.45;39.88;;;9.90;99.90;;;;;;5016690;28;20546;-69
2023/10/20 06:35:33;;;;;;;39.90;25.35;;;10.00;99.90;;;;;;5018576;28;20052;-70
2023/10/20 06:38:30;;;;;;;50.70;28.08;;;10.00;99.90;;;;;;5015029;28;20037;-70
2023/10/20 06:40:47;;;;;;;120.15;53.50;;;10.10;99.90;;;;;;5016118;28;20052;-70
2023/10/20 06:43:13;;;;;;;82.55;45.60;;;10.10;99.90;;;;;;5016533;28;20033;-70
2023/10/20 06:45:39;;;;;;;33.35;22.13;;;10.20;99.90;;;;;;5015803;28;20032;-70
2023/10/20 06:48:05;;;;;;;43.10;28.38;;;10.20;99.90;;;;;;5019383;28;20399;-70
2023/10/20 06:50:31;;;;;;;43.03;24.52;;;10.20;99.90;;;;;;5021124;28;20026;-70
2023/10/20 06:52:57;;;;;;;26.05;19.70;;;10.30;99.90;;;;;;5021320;28;20037;-70
2023/10/20 06:55:24;;;;;;;33.42;22.88;;;10.30;99.90;;;;;;5012840;28;20048;-70
2023/10/20 06:57:50;;;;;;;49.05;29.15;;;10.30;99.90;;;;;;5013177;28;20041;-70
2023/10/20 07:00:17;;;;;;;61.05;35.00;;;10.40;99.90;;;;;;5016985;28;20119;-69
2023/10/20 07:02:43;;;;;;;81.30;51.63;;;10.50;99.90;;;;;;5016960;28;20025;-70
2023/10/20 07:05:09;;;;;;;68.15;42.65;;;10.50;99.90;;;;;;5020746;28;20095;-70
2023/10/20 07:07:35;;;;;;;59.55;37.53;;;10.60;99.90;;;;;;5017355;28;20696;-69
2023/10/20 07:10:01;;;;;;;60.42;36.25;;;10.60;99.90;;;;;;5012895;28;20041;-70
2023/10/20 07:12:27;;;;;;;50.55;33.20;;;10.70;99.90;;;;;;5017690;28;20029;-69
2023/10/20 07:14:53;;;;;;;48.25;30.77;;;10.80;99.90;;;;;;5017333;28;20596;-69
2023/10/20 07:17:18;;;;;;;35.03;23.42;;;10.90;99.90;;;;;;5014041;28;20033;-68
2023/10/20 07:19:44;;;;;;;22.08;16.55;;;10.90;99.90;;;;;;5017749;28;20127;-68
2023/10/20 07:22:10;;;;;;;16.65;13.55;;;11.00;99.90;;;;;;5016528;28;20562;-68
2023/10/20 07:24:35;;;;;;;17.10;13.35;;;11.10;99.90;;;;;;5008018;28;20597;-68
2023/10/20 07:27:05;;;;;;;16.27;13.27;;;11.10;99.90;;;;;;5004038;28;20064;-68
2023/10/20 07:29:31;;;;;;;15.98;13.07;;;11.20;99.90;;;;;;5008232;28;20029;-68
2023/10/20 07:31:56;;;;;;;14.65;12.73;;;11.30;99.90;;;;;;5012107;28;20103;-68
2023/10/20 07:34:22;;;;;;;16.70;13.65;;;11.40;99.90;;;;;;5015328;28;20161;-68
2023/10/20 07:36:48;;;;;;;16.98;13.93;;;11.40;99.90;;;;;;5012880;28;20506;-68
2023/10/20 07:39:16;;;;;;;24.63;15.50;;;11.50;99.90;;;;;;5009020;28;20046;-68
2023/10/20 07:41:43;;;;;;;17.30;13.55;;;11.60;99.90;;;;;;5003657;28;20498;-68
2023/10/20 07:44:11;;;;;;;18.20;13.50;;;11.60;99.90;;;;;;5006295;28;20423;-68
2023/10/20 07:46:36;;;;;;;16.38;12.52;;;11.70;99.90;;;;;;5005839;28;20576;-68
2023/10/20 07:49:03;;;;;;;17.05;12.35;;;11.80;99.90;;;;;;5004437;28;20045;-68
2023/10/20 07:51:28;;;;;;;17.05;12.10;;;11.90;99.90;;;;;;5004621;28;20029;-68
2023/10/20 07:53:54;;;;;;;13.80;12.30;;;12.10;99.90;;;;;;5008676;28;20050;-69
2023/10/20 07:56:20;;;;;;;15.20;11.52;;;12.20;99.90;;;;;;5017252;28;20065;-69
2023/10/20 07:58:45;;;;;;;13.60;11.35;;;12.40;99.90;;;;;;5015088;28;20115;-69
2023/10/20 08:01:11;;;;;;;13.73;11.43;;;12.60;99.90;;;;;;5014154;28;20037;-68
2023/10/20 08:03:37;;;;;;;12.68;10.95;;;12.80;99.90;;;;;;5017323;28;20029;-68
2023/10/20 08:06:03;;;;;;;15.02;11.40;;;13.00;99.90;;;;;;5014463;28;21009;-70
2023/10/20 08:08:29;;;;;;;12.98;10.30;;;13.20;99.90;;;;;;5020789;28;20030;-70
2023/10/20 08:10:55;;;;;;;14.98;10.63;;;13.40;99.90;;;;;;5010398;28;20042;-69
2023/10/20 08:13:21;;;;;;;16.98;10.13;;;13.60;99.90;;;;;;5016697;28;20045;-69
2023/10/20 08:15:47;;;;;;;14.13;10.38;;;13.70;99.90;;;;;;4999659;28;20037;-67
2023/10/20 08:18:13;;;;;;;13.25;10.82;;;13.90;99.90;;;;;;5010784;28;20112;-69
2023/10/20 08:20:39;;;;;;;11.10;9.77;;;14.10;99.90;;;;;;5015486;28;20052;-69
2023/10/20 08:23:05;;;;;;;13.77;10.68;;;14.20;99.90;;;;;;5021260;28;20052;-68
2023/10/20 08:25:30;;;;;;;11.10;9.68;;;14.40;99.90;;;;;;5010624;28;20045;-69
2023/10/20 08:27:57;;;;;;;12.38;10.18;;;14.40;99.90;;;;;;5009625;28;20041;-69
2023/10/20 08:30:23;;;;;;;14.32;10.15;;;14.50;99.90;;;;;;5010166;28;20029;-68
2023/10/20 08:32:49;;;;;;;11.70;9.90;;;14.50;99.90;;;;;;5014813;28;20045;-69
2023/10/20 08:35:15;;;;;;;11.75;9.98;;;14.60;99.90;;;;;;5012428;28;20056;-69
2023/10/20 08:37:40;;;;;;;11.82;9.48;;;14.60;99.90;;;;;;5017191;28;20028;-69
2023/10/20 08:40:16;;;;;;;14.50;10.23;;;14.60;99.90;;;;;;5014547;28;20048;-69
2023/10/20 08:42:42;;;;;;;12.90;9.55;;;14.70;99.90;;;;;;5012980;28;20068;-69
2023/10/20 08:45:12;;;;;;;11.05;9.73;;;14.80;99.90;;;;;;5014950;28;20028;-69
2023/10/20 08:47:42;;;;;;;11.18;9.57;;;14.80;99.90;;;;;;5021424;28;20037;-69
2023/10/20 08:50:09;;;;;;;13.25;9.88;;;14.90;99.90;;;;;;5009815;28;20014;-69
2023/10/20 08:52:35;;;;;;;12.38;9.75;;;15.00;99.90;;;;;;5017970;28;20045;-69
2023/10/20 08:55:01;;;;;;;13.73;10.77;;;15.10;99.90;;;;;;5015966;28;20080;-68
2023/10/20 08:57:27;;;;;;;16.90;9.93;;;15.20;99.90;;;;;;5019945;28;20049;-69
2023/10/20 08:59:54;;;;;;;13.88;10.15;;;15.20;99.90;;;;;;5016284;28;20041;-69
2023/10/20 09:02:21;;;;;;;11.93;9.88;;;15.30;99.90;;;;;;5018396;28;20020;-69
2023/10/20 09:04:51;;;;;;;13.18;9.00;;;15.40;99.90;;;;;;5019991;28;20104;-69
2023/10/20 09:07:16;;;;;;;11.75;8.77;;;15.50;99.90;;;;;;5020959;28;20033;-69
2023/10/20 09:09:43;;;;;;;15.98;9.45;;;15.60;99.90;;;;;;5020253;28;20036;-68
2023/10/20 09:12:08;;;;;;;13.80;8.93;;;15.70;99.90;;;;;;5022678;28;20049;-68
2023/10/20 09:14:39;;;;;;;12.10;9.25;;;15.80;99.90;;;;;;5016163;28;20568;-65
2023/10/20 09:17:05;;;;;;;14.93;10.35;;;15.90;99.90;;;;;;5014217;28;20048;-69
2023/10/20 09:19:30;;;;;;;12.68;11.02;;;16.00;99.90;;;;;;5016730;28;20042;-68
2023/10/20 09:21:57;;;;;;;13.77;9.88;;;16.10;99.90;;;;;;5017000;28;20045;-68
2023/10/20 09:24:30;;;;;;;12.18;9.23;;;16.30;99.90;;;;;;5018439;28;20037;-69
2023/10/20 09:26:56;;;;;;;14.77;7.63;;;16.40;99.90;;;;;;5014368;28;20033;-67
2023/10/20 09:29:22;;;;;;;14.10;6.47;;;16.50;99.90;;;;;;5015756;28;20552;-70
2023/10/20 09:31:49;;;;;;;10.07;5.78;;;16.60;99.90;;;;;;5015426;28;20092;-69
2023/10/20 09:34:15;;;;;;;18.27;9.18;;;16.80;99.90;;;;;;5016284;28;20501;-69
2023/10/20 09:36:47;;;;;;;18.83;7.78;;;16.90;99.90;;;;;;5011835;28;20044;-69
2023/10/20 09:39:20;;;;;;;26.73;14.48;;;17.00;99.90;;;;;;5020208;28;20038;-69
2023/10/20 09:41:50;;;;;;;28.02;15.57;;;17.00;99.90;;;;;;5020289;28;20057;-68
2023/10/20 09:44:35;;;;;;;39.95;29.17;;;17.10;99.90;;;;;;5022207;28;20049;-69
2023/10/20 09:47:22;;;;;;;17.10;10.30;;;17.10;99.90;;;;;;5016124;28;20046;-69
2023/10/20 09:49:51;;;;;;;12.93;5.82;;;17.20;99.90;;;;;;5016266;28;20032;-69
2023/10/20 09:52:17;;;;;;;9.88;6.43;;;17.20;99.90;;;;;;5018364;28;20399;-69
2023/10/20 09:54:43;;;;;;;12.13;6.25;;;17.30;99.90;;;;;;5013055;28;20052;-69
2023/10/20 09:57:10;;;;;;;10.48;5.93;;;17.30;99.90;;;;;;5018745;28;20040;-69
2023/10/20 09:59:38;;;;;;;10.55;5.28;;;17.40;99.90;;;;;;5002602;28;20133;-68
2023/10/20 10:02:04;;;;;;;13.88;6.07;;;17.40;99.90;;;;;;4999138;28;20037;-68
2023/10/20 10:04:36;;;;;;;12.85;5.93;;;17.50;99.90;;;;;;4993141;28;20041;-69
2023/10/20 10:07:03;;;;;;;11.95;5.40;;;17.50;99.90;;;;;;4993059;28;20038;-69
2023/10/20 10:09:43;;;;;;;15.98;5.85;;;17.60;99.90;;;;;;4994739;28;20033;-69
2023/10/20 10:12:20;;;;;;;12.13;4.45;;;17.80;99.90;;;;;;4996220;28;20033;-70
2023/10/20 10:15:14;;;;;;;12.55;6.20;;;17.80;99.90;;;;;;4997967;28;20042;-66
2023/10/20 10:17:48;;;;;;;11.27;5.07;;;17.80;99.90;;;;;;4994461;28;20091;-66
2023/10/20 10:20:25;;;;;;;11.77;5.03;;;17.90;99.90;;;;;;4993687;28;20041;-66
2023/10/20 10:23:27;;;;;;;13.77;5.00;;;18.00;99.90;;;;;;4990666;28;20093;-66
2023/10/20 10:25:53;;;;;;;9.07;4.55;;;18.00;99.90;;;;;;4982789;28;20049;-66
2023/10/20 10:28:21;;;;;;;10.45;4.78;;;18.10;99.90;;;;;;4992999;28;20042;-66
2023/10/20 10:30:52;;;;;;;10.07;4.80;;;18.30;99.90;;;;;;4990523;28;20108;-66
2023/10/20 10:33:22;;;;;;;11.82;5.57;;;18.40;99.90;;;;;;4994755;28;20058;-66
2023/10/20 10:35:48;;;;;;;8.45;4.68;;;18.50;99.90;;;;;;4992569;28;20021;-66
2023/10/20 10:38:21;;;;;;;10.85;5.03;;;18.50;99.90;;;;;;4991956;28;20038;-66
2023/10/20 10:40:51;;;;;;;10.90;4.78;;;18.60;99.90;;;;;;4994252;28;20030;-66
2023/10/20 10:43:19;;;;;;;11.05;5.15;;;18.70;99.90;;;;;;4991464;28;20041;-66
2023/10/20 10:45:50;;;;;;;13.02;5.55;;;18.70;99.90;;;;;;4991920;28;20869;-66
2023/10/20 10:48:17;;;;;;;14.32;5.68;;;18.70;99.90;;;;;;4993735;28;20457;-66
2023/10/20 10:50:45;;;;;;;9.95;5.53;;;18.80;99.90;;;;;;4994043;28;20359;-66
2023/10/20 10:53:12;;;;;;;11.43;5.13;;;18.80;99.90;;;;;;4991498;28;20045;-70
2023/10/20 10:55:38;;;;;;;7.53;4.38;;;18.80;99.90;;;;;;4988712;28;20139;-70
2023/10/20 10:58:09;;;;;;;12.43;4.43;;;18.90;99.90;;;;;;4997333;28;20127;-69
2023/10/20 11:00:35;;;;;;;9.23;5.03;;;19.00;99.90;;;;;;5013947;28;20038;-69
2023/10/20 11:03:02;;;;;;;15.57;4.93;;;19.00;99.90;;;;;;5010178;28;20483;-69
2023/10/20 11:05:29;;;;;;;12.02;5.47;;;19.10;99.90;;;;;;5015877;28;20128;-69
2023/10/20 11:07:56;;;;;;;11.90;4.90;;;19.20;99.90;;;;;;5011863;28;20052;-70
2023/10/20 11:10:25;;;;;;;14.98;4.32;;;19.20;99.90;;;;;;5007303;28;20129;-66
2023/10/20 11:12:50;;;;;;;13.35;4.47;;;19.30;99.90;;;;;;5008505;28;20038;-66
2023/10/20 11:15:16;;;;;;;9.00;4.22;;;19.40;99.90;;;;;;5008230;28;20040;-66
2023/10/20 11:17:42;;;;;;;14.15;4.88;;;19.40;99.90;;;;;;5005798;28;20045;-66
2023/10/20 11:20:09;;;;;;;11.68;4.63;;;19.40;99.90;;;;;;5011275;28;20114;-66
2023/10/20 11:22:38;;;;;;;14.35;4.68;;;19.50;99.90;;;;;;5011920;28;20968;-66
2023/10/20 11:25:05;;;;;;;15.80;4.72;;;19.50;99.90;;;;;;5013417;28;20045;-66
2023/10/20 11:27:41;;;;;;;8.85;4.32;;;19.60;99.90;;;;;;5012231;28;20029;-66
2023/10/20 11:30:08;;;;;;;11.07;4.07;;;19.70;99.90;;;;;;5015523;28;20087;-66
2023/10/20 11:32:34;;;;;;;10.75;3.92;;;19.70;99.90;;;;;;5016254;28;20045;-66
2023/10/20 11:35:00;;;;;;;9.90;3.90;;;19.80;99.90;;;;;;5015968;28;20033;-66
2023/10/20 11:37:26;;;;;;;15.95;4.53;;;19.80;99.90;;;;;;5016829;28;20583;-66
2023/10/20 11:39:52;;;;;;;15.02;5.30;;;19.90;99.90;;;;;;5013494;28;20037;-66
2023/10/20 11:42:18;;;;;;;9.35;4.03;;;20.00;99.90;;;;;;5010370;28;20034;-65
2023/10/20 11:44:44;;;;;;;16.10;4.55;;;20.10;99.90;;;;;;5016091;28;20033;-66
2023/10/20 11:47:09;;;;;;;9.55;3.50;;;20.10;99.90;;;;;;5013112;28;20099;-65
2023/10/20 11:49:35;;;;;;;12.43;4.13;;;20.20;99.90;;;;;;5006434;28;20116;-65
2023/10/20 11:52:02;;;;;;;10.18;3.95;;;20.30;99.90;;;;;;5008586;28;20073;-65
2023/10/20 11:54:28;;;;;;;11.82;4.07;;;20.40;99.90;;;;;;5017552;28;20045;-65
2023/10/20 11:56:53;;;;;;;11.65;3.47;;;20.60;99.90;;;;;;5023026;28;20040;-65
2023/10/20 11:59:19;;;;;;;9.48;3.70;;;20.70;99.90;;;;;;5000535;28;20046;-65
2023/10/20 12:01:45;;;;;;;13.48;4.28;;;20.80;99.90;;;;;;4990715;28;20045;-64
2023/10/20 12:04:12;;;;;;;9.80;4.10;;;20.90;99.90;;;;;;4986954;28;20618;-64
2023/10/20 12:06:38;;;;;;;12.77;4.70;;;21.00;99.90;;;;;;4984878;28;20547;-65
2023/10/20 12:09:10;;;;;;;13.10;3.25;;;21.10;99.90;;;;;;4987678;28;20061;-63
2023/10/20 12:11:37;;;;;;;9.90;3.83;;;21.00;99.90;;;;;;4980020;28;20038;-64
2023/10/20 12:14:04;;;;;;;16.15;6.70;;;21.00;99.90;;;;;;4987060;28;20046;-64
2023/10/20 12:16:30;;;;;;;17.45;9.60;;;21.00;99.90;;;;;;4983392;28;20411;-64
2023/10/20 12:19:01;;;;;;;14.52;4.50;;;21.00;99.90;;;;;;4986998;28;20035;-64
2023/10/20 12:21:30;;;;;;;20.52;12.23;;;21.00;99.90;;;;;;4985753;28;20390;-64
2023/10/20 12:23:56;;;;;;;10.35;4.97;;;21.00;99.90;;;;;;4988451;28;20046;-69
2023/10/20 12:26:22;;;;;;;12.65;3.65;;;21.00;99.90;;;;;;4985060;28;20127;-69
2023/10/20 12:28:49;;;;;;;6.65;2.95;;;20.90;99.90;;;;;;4985004;28;20103;-70
2023/10/20 12:31:15;;;;;;;10.75;3.35;;;20.90;99.90;;;;;;4989744;28;20041;-69
2023/10/20 12:33:44;;;;;;;9.45;3.83;;;20.90;99.90;;;;;;4991619;28;20787;-69
2023/10/20 12:36:13;;;;;;;6.60;2.65;;;20.90;99.90;;;;;;4996865;28;20042;-69
2023/10/20 12:38:43;;;;;;;13.43;3.97;;;20.90;99.90;;;;;;4997320;28;20038;-69
2023/10/20 12:41:13;;;;;;;9.15;3.10;;;20.90;99.90;;;;;;4997761;28;20073;-69
2023/10/20 12:43:40;;;;;;;7.55;3.00;;;20.90;99.90;;;;;;5000536;28;20845;-65
2023/10/20 12:46:06;;;;;;;10.45;2.70;;;20.90;99.90;;;;;;4997785;28;20099;-64
2023/10/20 12:48:33;;;;;;;8.63;2.90;;;20.90;99.90;;;;;;4996594;28;20045;-64
2023/10/20 12:51:09;;;;;;;7.28;3.10;;;20.90;99.90;;;;;;4996036;28;20064;-64
2023/10/20 12:53:36;;;;;;;7.32;2.85;;;20.90;99.90;;;;;;4999217;28;20537;-64
2023/10/20 12:56:02;;;;;;;10.07;3.17;;;20.90;99.90;;;;;;4998955;28;20489;-64
2023/10/20 12:58:28;;;;;;;8.27;2.97;;;20.90;99.90;;;;;;5007181;28;20399;-65
2023/10/20 13:00:53;;;;;;;7.32;3.30;;;20.90;99.90;;;;;;5014948;28;20096;-66
2023/10/20 13:03:19;;;;;;;10.55;3.05;;;21.00;99.90;;;;;;5011436;28;20038;-65
2023/10/20 13:05:45;;;;;;;14.15;3.50;;;21.00;99.90;;;;;;5021108;28;20107;-65
2023/10/20 13:08:13;;;;;;;8.02;2.65;;;21.10;99.90;;;;;;5019120;28;20483;-65